Time;durP1;ratioP1;P1;durP2;ratioP2;P2;SDS_P1;SDS_P2;PMS_P1;PMS_P2;Temp;Humidity;BMP_temperature;BMP_pressure;BME280_temperature;BME280_humidity;BME280_pressure;Samples;Min_cycle;Max_cycle;Signal;HPM_P1;HPM_P2
2023/11/23 00:00:15;;;;;;;1.50;1.10;;;;;;;18.40;51.34;98699.72;104756;1268;74433;-53
2023/11/23 00:02:42;;;;;;;1.00;1.00;;;;;;;18.40;51.28;98702.81;104548;1272;65813;-53
2023/11/23 00:05:09;;;;;;;0.90;0.90;;;;;;;18.39;51.31;98698.77;104548;1273;71447;-52
2023/11/23 00:07:36;;;;;;;1.50;0.90;;;;;;;18.40;51.37;98698.70;104515;1272;61267;-52
2023/11/23 00:10:05;;;;;;;0.80;0.80;;;;;;;18.39;51.32;98697.53;104614;1272;61269;-51
2023/11/23 00:12:32;;;;;;;1.00;0.90;;;;;;;18.39;51.28;98691.73;104634;1268;74349;-52
2023/11/23 00:15:00;;;;;;;0.90;0.80;;;;;;;18.39;51.33;98688.38;104672;1272;64148;-53
2023/11/23 00:17:27;;;;;;;1.20;0.80;;;;;;;18.39;51.19;98679.23;104552;1268;72723;-52
2023/11/23 00:19:54;;;;;;;1.00;0.90;;;;;;;18.39;51.33;98672.02;104778;1274;61365;-52
2023/11/23 00:22:21;;;;;;;1.00;1.00;;;;;;;18.39;51.33;98674.81;104595;1268;61393;-51
2023/11/23 00:24:48;;;;;;;1.10;1.00;;;;;;;18.39;51.29;98669.94;104749;1273;74620;-51
2023/11/23 00:27:14;;;;;;;1.10;1.00;;;;;;;18.38;51.25;98663.17;104637;1273;64051;-51
2023/11/23 00:29:41;;;;;;;2.20;1.00;;;;;;;18.38;51.26;98660.08;104724;1268;72656;-51
2023/11/23 00:32:08;;;;;;;0.90;0.90;;;;;;;18.38;51.24;98665.23;104551;1272;61389;-51
2023/11/23 00:34:35;;;;;;;1.60;1.10;;;;;;;18.38;51.30;98665.85;104647;1268;61263;-52
2023/11/23 00:37:01;;;;;;;0.90;0.90;;;;;;;18.37;51.27;98667.54;104718;1269;74645;-52
2023/11/23 00:39:28;;;;;;;1.00;0.90;;;;;;;18.37;51.26;98667.39;104536;1272;63105;-52
2023/11/23 00:41:55;;;;;;;0.80;0.80;;;;;;;18.37;51.23;98659.79;104513;1269;61402;-52
2023/11/23 00:44:21;;;;;;;0.80;0.80;;;;;;;18.37;51.17;98657.60;104791;1273;61283;-52
2023/11/23 00:46:48;;;;;;;1.10;1.00;;;;;;;18.37;51.24;98668.48;104637;1268;61313;-54
2023/11/23 00:49:16;;;;;;;1.20;0.90;;;;;;;18.36;51.27;98671.55;104703;1273;75412;-53
2023/11/23 00:51:43;;;;;;;1.00;0.90;;;;;;;18.37;51.23;98672.40;104502;1274;64271;-52
2023/11/23 00:54:10;;;;;;;1.00;0.80;;;;;;;18.36;51.20;98656.90;104930;1268;72593;-52
2023/11/23 00:56:37;;;;;;;1.30;1.10;;;;;;;18.36;51.21;98650.14;104589;1273;61298;-52
2023/11/23 00:59:04;;;;;;;1.00;0.80;;;;;;;18.36;51.17;98655.48;104948;1268;61386;-53
2023/11/23 01:01:30;;;;;;;1.00;0.90;;;;;;;18.36;51.24;98646.02;104512;1270;74603;-52
2023/11/23 01:03:57;;;;;;;1.20;1.10;;;;;;;18.36;51.20;98643.63;105137;1268;65946;-52
2023/11/23 01:06:24;;;;;;;2.00;0.90;;;;;;;18.35;51.15;98638.92;104715;1268;73639;-52
2023/11/23 01:08:51;;;;;;;1.10;1.00;;;;;;;18.36;51.19;98627.58;104685;1273;61297;-52
2023/11/23 01:11:17;;;;;;;0.80;0.80;;;;;;;18.35;51.20;98611.42;104650;1267;61360;-52
2023/11/23 01:13:44;;;;;;;1.10;0.90;;;;;;;18.36;51.11;98606.10;104527;1273;74655;-52
2023/11/23 01:16:10;;;;;;;0.70;0.70;;;;;;;18.35;51.20;98608.23;104769;1274;64210;-52
2023/11/23 01:18:37;;;;;;;1.10;0.80;;;;;;;18.35;51.16;98608.56;104721;1273;61760;-52
2023/11/23 01:21:04;;;;;;;0.90;0.80;;;;;;;18.35;51.13;98598.86;104542;1273;61339;-52
2023/11/23 01:23:31;;;;;;;0.90;0.80;;;;;;;18.35;51.19;98601.58;104479;1268;61296;-55
2023/11/23 01:25:58;;;;;;;1.00;0.90;;;;;;;18.34;51.21;98595.35;104661;1273;74414;-54
2023/11/23 01:28:25;;;;;;;0.80;0.80;;;;;;;18.34;51.24;98597.21;104588;1273;64707;-56
2023/11/23 01:30:52;;;;;;;0.90;0.80;;;;;;;18.34;51.16;98598.23;104670;1269;72711;-51
2023/11/23 01:33:18;;;;;;;1.00;0.90;;;;;;;18.33;51.08;98596.26;104663;1274;61260;-52
2023/11/23 01:35:45;;;;;;;1.50;1.10;;;;;;;18.33;51.14;98595.77;104706;1268;61387;-55
2023/11/23 01:38:12;;;;;;;1.10;1.00;;;;;;;18.33;51.13;98576.26;104644;1273;74594;-54
2023/11/23 01:40:38;;;;;;;1.10;1.00;;;;;;;18.33;51.15;98567.86;104695;1272;66507;-54
2023/11/23 01:43:09;;;;;;;0.70;0.70;;;;;;;18.33;51.20;98564.77;104697;1268;72539;-53
2023/11/23 01:45:37;;;;;;;1.00;0.90;;;;;;;18.33;51.15;98552.52;104629;1272;61370;-53
2023/11/23 01:48:04;;;;;;;0.80;0.80;;;;;;;18.32;51.15;98537.02;104570;1268;61284;-54
2023/11/23 01:50:31;;;;;;;1.20;0.90;;;;;;;18.32;51.15;98526.94;104694;1268;73196;-52
2023/11/23 01:52:58;;;;;;;1.00;0.80;;;;;;;18.33;51.22;98522.14;104451;1273;65184;-52
2023/11/23 01:55:25;;;;;;;2.10;1.10;;;;;;;18.32;51.16;98519.27;104617;1268;73426;-52
2023/11/23 01:57:53;;;;;;;0.90;0.80;;;;;;;18.32;51.13;98513.67;104523;1276;61403;-52
2023/11/23 02:00:20;;;;;;;1.10;0.90;;;;;;;18.31;51.20;98505.45;104627;1269;61365;-52
2023/11/23 02:02:46;;;;;;;0.90;0.80;;;;;;;18.31;51.04;98495.74;104471;1268;74454;-52
2023/11/23 02:05:13;;;;;;;1.50;0.90;;;;;;;18.31;51.12;98488.30;104527;1274;65362;-52
2023/11/23 02:07:40;;;;;;;0.70;0.70;;;;;;;18.31;51.14;98480.24;104512;1268;72687;-52
2023/11/23 02:10:08;;;;;;;1.30;1.00;;;;;;;18.31;51.10;98476.52;104609;1274;61265;-52
2023/11/23 02:12:35;;;;;;;1.00;0.90;;;;;;;18.31;51.09;98473.96;104707;1268;61242;-51
2023/11/23 02:15:04;;;;;;;0.80;0.80;;;;;;;18.30;51.01;98472.86;104489;1269;74677;-51
2023/11/23 02:17:31;;;;;;;0.80;0.80;;;;;;;18.30;51.07;98471.01;104492;1273;63001;-53
2023/11/23 02:19:58;;;;;;;0.90;0.80;;;;;;;18.30;51.05;98460.39;104465;1268;73423;-52
2023/11/23 02:22:26;;;;;;;1.20;1.10;;;;;;;18.30;51.01;98453.55;104574;1275;61389;-52
2023/11/23 02:24:53;;;;;;;0.80;0.80;;;;;;;18.30;51.05;98471.05;104519;1269;61283;-52
2023/11/23 02:27:20;;;;;;;1.10;1.00;;;;;;;18.29;51.05;98456.77;104636;1269;74543;-52
2023/11/23 02:29:46;;;;;;;0.70;0.70;;;;;;;18.29;51.00;98451.13;104678;1272;65484;-53
2023/11/23 02:32:13;;;;;;;1.00;0.90;;;;;;;18.29;50.97;98451.20;104683;1269;71518;-52
2023/11/23 02:34:39;;;;;;;1.10;1.00;;;;;;;18.28;50.98;98443.50;104779;1274;61303;-52
2023/11/23 02:37:06;;;;;;;1.20;1.00;;;;;;;18.28;50.92;98438.68;104615;1269;61271;-52
2023/11/23 02:39:33;;;;;;;0.90;0.90;;;;;;;18.28;51.01;98427.67;104566;1273;75064;-52
2023/11/23 02:41:59;;;;;;;0.70;0.70;;;;;;;18.28;51.03;98415.12;104475;1274;65144;-52
2023/11/23 02:44:26;;;;;;;0.80;0.80;;;;;;;18.28;51.05;98406.83;104645;1268;72061;-52
2023/11/23 02:46:53;;;;;;;0.90;0.80;;;;;;;18.28;50.93;98400.86;104456;1273;61265;-54
2023/11/23 02:49:19;;;;;;;1.20;0.90;;;;;;;18.27;50.94;98411.55;104586;1273;61260;-52
2023/11/23 02:51:46;;;;;;;1.30;0.80;;;;;;;18.27;50.89;98407.41;104673;1273;61267;-52
2023/11/23 02:54:13;;;;;;;0.80;0.80;;;;;;;18.27;50.92;98405.18;104841;1274;65536;-52
2023/11/23 02:56:40;;;;;;;0.90;0.80;;;;;;;18.27;50.87;98402.53;104513;1268;73104;-53
2023/11/23 02:59:09;;;;;;;1.40;1.00;;;;;;;18.26;50.91;98413.98;104942;1272;61324;-53
2023/11/23 03:01:36;;;;;;;1.00;0.70;;;;;;;18.25;51.01;98409.84;104542;1272;61360;-52
2023/11/23 03:04:04;;;;;;;0.90;0.80;;;;;;;18.26;50.95;98406.99;105119;1269;74452;-52
2023/11/23 03:06:31;;;;;;;0.90;0.80;;;;;;;18.26;51.00;98398.48;104765;1268;63654;-54
2023/11/23 03:08:58;;;;;;;1.00;0.90;;;;;;;18.25;51.02;98395.90;105015;1273;72492;-52
2023/11/23 03:11:26;;;;;;;0.70;0.70;;;;;;;18.26;50.94;98391.65;104673;1274;61281;-52
2023/11/23 03:13:53;;;;;;;0.90;0.70;;;;;;;18.25;50.95;98388.77;104754;1270;61376;-54
2023/11/23 03:16:20;;;;;;;1.00;0.80;;;;;;;18.26;50.98;98388.79;104634;1272;75015;-53
2023/11/23 03:18:47;;;;;;;0.90;0.70;;;;;;;18.25;50.97;98385.75;104655;1273;65420;-53
2023/11/23 03:21:14;;;;;;;0.80;0.70;;;;;;;18.26;51.11;98382.81;104734;1268;73620;-54
2023/11/23 03:23:42;;;;;;;0.90;0.80;;;;;;;18.25;51.05;98384.35;104706;1274;61366;-52
2023/11/23 03:26:09;;;;;;;0.80;0.80;;;;;;;18.25;51.00;98371.94;104747;1272;61438;-52
2023/11/23 03:28:36;;;;;;;0.90;0.80;;;;;;;18.24;51.00;98354.73;104643;1273;75105;-52
2023/11/23 03:31:03;;;;;;;0.80;0.80;;;;;;;18.25;50.99;98349.95;104519;1273;65401;-53
2023/11/23 03:33:29;;;;;;;0.90;0.80;;;;;;;18.25;50.96;98347.23;104610;1268;72880;-54
2023/11/23 03:35:56;;;;;;;0.70;0.70;;;;;;;18.24;50.90;98346.29;104518;1273;61269;-52
2023/11/23 03:38:22;;;;;;;1.50;0.90;;;;;;;18.24;50.87;98357.51;104676;1267;61279;-52
2023/11/23 03:40:49;;;;;;;0.80;0.80;;;;;;;18.24;50.84;98356.64;104434;1273;74631;-52
2023/11/23 03:43:16;;;;;;;0.70;0.70;;;;;;;18.24;50.93;98354.10;104615;1273;64332;-51
2023/11/23 03:45:43;;;;;;;0.90;0.80;;;;;;;18.23;50.98;98358.02;104503;1267;72437;-52
2023/11/23 03:48:09;;;;;;;1.00;0.90;;;;;;;18.23;50.93;98358.79;104472;1273;61364;-51
2023/11/23 03:50:36;;;;;;;0.80;0.80;;;;;;;18.23;50.90;98355.84;104613;1273;61310;-51
2023/11/23 03:53:04;;;;;;;0.80;0.80;;;;;;;18.23;50.88;98350.58;104732;1274;74613;-51
2023/11/23 03:55:31;;;;;;;0.90;0.80;;;;;;;18.22;50.90;98344.52;104656;1273;65195;-51
2023/11/23 03:57:57;;;;;;;0.80;0.80;;;;;;;18.22;50.90;98330.64;104729;1268;72656;-51
2023/11/23 04:00:25;;;;;;;0.80;0.80;;;;;;;18.22;50.89;98322.28;104697;1273;61287;-51
2023/11/23 04:02:52;;;;;;;0.70;0.70;;;;;;;18.22;50.92;98321.05;104662;1273;61205;-52
2023/11/23 04:05:19;;;;;;;1.00;0.90;;;;;;;18.22;50.89;98319.54;104669;1278;74380;-52
2023/11/23 04:07:46;;;;;;;0.80;0.70;;;;;;;18.22;50.82;98307.39;104626;1273;64027;-52
2023/11/23 04:10:13;;;;;;;0.90;0.80;;;;;;;18.21;50.85;98295.86;104644;1269;72600;-51
2023/11/23 04:12:40;;;;;;;0.70;0.60;;;;;;;18.21;50.84;98292.56;104714;1274;61386;-51
2023/11/23 04:15:08;;;;;;;0.80;0.70;;;;;;;18.21;50.81;98278.20;104743;1270;61277;-52
2023/11/23 04:17:34;;;;;;;0.80;0.80;;;;;;;18.20;50.85;98277.73;104549;1274;75165;-51
2023/11/23 04:20:01;;;;;;;0.70;0.70;;;;;;;18.20;50.70;98276.57;104354;1273;65055;-52
2023/11/23 04:22:28;;;;;;;0.80;0.80;;;;;;;18.20;50.78;98270.98;104491;1272;72595;-52
2023/11/23 04:24:55;;;;;;;1.30;0.80;;;;;;;18.20;50.73;98267.80;104566;1273;61362;-52
2023/11/23 04:27:21;;;;;;;0.80;0.80;;;;;;;18.20;50.71;98260.07;104586;1268;61299;-52
2023/11/23 04:29:48;;;;;;;0.80;0.80;;;;;;;18.19;50.84;98253.54;104623;1272;74596;-52
2023/11/23 04:32:15;;;;;;;1.10;0.90;;;;;;;18.20;50.75;98246.11;104530;1274;63277;-52
2023/11/23 04:34:42;;;;;;;0.90;0.80;;;;;;;18.19;50.82;98231.27;104576;1268;72648;-52
2023/11/23 04:37:09;;;;;;;0.80;0.70;;;;;;;18.19;50.74;98220.00;104648;1272;61375;-52
2023/11/23 04:39:35;;;;;;;0.70;0.70;;;;;;;18.19;50.88;98221.45;104533;1269;61347;-52
2023/11/23 04:42:02;;;;;;;1.20;0.90;;;;;;;18.18;50.77;98220.27;104614;1274;75116;-54
2023/11/23 04:44:29;;;;;;;0.70;0.70;;;;;;;18.18;50.74;98219.80;104689;1272;65387;-52
2023/11/23 04:46:55;;;;;;;2.10;0.70;;;;;;;18.18;50.86;98225.99;104688;1269;72570;-52
2023/11/23 04:49:22;;;;;;;1.80;0.80;;;;;;;18.18;50.78;98232.95;104788;1274;61264;-53
2023/11/23 04:51:49;;;;;;;0.90;0.80;;;;;;;18.17;50.75;98227.06;104540;1268;61261;-53
2023/11/23 04:54:15;;;;;;;1.10;0.70;;;;;;;18.17;50.81;98229.45;104574;1272;75260;-54
2023/11/23 04:56:42;;;;;;;1.30;0.90;;;;;;;18.17;50.76;98226.36;104616;1274;65540;-53
2023/11/23 04:59:09;;;;;;;1.70;0.80;;;;;;;18.18;50.79;98214.74;104714;1273;72617;-54
2023/11/23 05:01:35;;;;;;;1.00;0.90;;;;;;;18.17;50.83;98212.17;104775;1282;61256;-52
2023/11/23 05:04:02;;;;;;;1.50;0.80;;;;;;;18.17;50.81;98210.22;104491;1273;61191;-52
2023/11/23 05:06:32;;;;;;;0.90;0.70;;;;;;;18.16;50.75;98200.21;104458;1273;74582;-52
2023/11/23 05:08:58;;;;;;;1.30;0.90;;;;;;;18.16;50.80;98195.66;104386;1274;64059;-53
2023/11/23 05:11:25;;;;;;;0.90;0.80;;;;;;;18.16;50.78;98196.72;104709;1273;73921;-52
2023/11/23 05:13:52;;;;;;;0.70;0.70;;;;;;;18.16;50.89;98193.23;104684;1275;61383;-52
2023/11/23 05:16:18;;;;;;;0.80;0.80;;;;;;;18.15;50.85;98191.91;104722;1273;61315;-52
2023/11/23 05:18:45;;;;;;;0.80;0.80;;;;;;;18.16;50.85;98190.60;104572;1273;74609;-53
2023/11/23 05:21:12;;;;;;;0.70;0.70;;;;;;;18.15;50.76;98194.08;104520;1273;64278;-53
2023/11/23 05:23:39;;;;;;;0.90;0.80;;;;;;;18.16;50.84;98195.16;104652;1273;72747;-53
2023/11/23 05:26:05;;;;;;;0.80;0.80;;;;;;;18.15;50.87;98198.70;104547;1274;61290;-53
2023/11/23 05:28:32;;;;;;;0.80;0.80;;;;;;;18.15;50.88;98188.82;104585;1273;61182;-53
2023/11/23 05:30:58;;;;;;;1.00;0.90;;;;;;;18.14;50.83;98181.10;104741;1267;73991;-53
2023/11/23 05:33:25;;;;;;;1.90;0.80;;;;;;;18.15;50.71;98167.52;104575;1273;64460;-53
2023/11/23 05:35:55;;;;;;;1.80;0.80;;;;;;;18.15;50.72;98156.15;104691;1273;72461;-54
2023/11/23 05:38:26;;;;;;;0.80;0.70;;;;;;;18.15;50.57;98144.95;104351;1274;61380;-54
2023/11/23 05:40:54;;;;;;;1.00;0.90;;;;;;;18.15;50.70;98116.74;104409;1268;61249;-52
2023/11/23 05:43:21;;;;;;;1.00;0.90;;;;;;;18.14;50.60;98105.86;104538;1270;74481;-54
2023/11/23 05:45:48;;;;;;;0.70;0.70;;;;;;;18.14;50.60;98096.42;104516;1274;64360;-52
2023/11/23 05:48:14;;;;;;;1.60;1.00;;;;;;;18.14;50.63;98088.23;104340;1268;72617;-53
2023/11/23 05:50:43;;;;;;;1.20;0.80;;;;;;;18.14;50.57;98082.27;104459;1273;61368;-52
2023/11/23 05:53:10;;;;;;;1.00;0.90;;;;;;;18.15;50.66;98081.13;104353;1273;61461;-52
2023/11/23 05:55:36;;;;;;;2.70;0.80;;;;;;;18.14;50.60;98079.47;104488;1272;75104;-52
2023/11/23 05:58:03;;;;;;;0.70;0.70;;;;;;;18.14;50.61;98076.52;104462;1274;66432;-52
2023/11/23 06:00:31;;;;;;;0.90;0.70;;;;;;;18.14;50.63;98076.31;104575;1268;72679;-52
2023/11/23 06:02:57;;;;;;;1.10;1.00;;;;;;;18.14;50.61;98071.66;104749;1274;61443;-52
2023/11/23 06:05:24;;;;;;;0.70;0.70;;;;;;;18.14;50.58;98069.17;104660;1270;61240;-52
2023/11/23 06:07:51;;;;;;;0.90;0.90;;;;;;;18.14;50.62;98081.41;104537;1274;74718;-52
2023/11/23 06:10:18;;;;;;;1.00;0.80;;;;;;;18.15;50.66;98093.27;104603;1272;64267;-51
2023/11/23 06:12:45;;;;;;;0.80;0.70;;;;;;;18.15;50.72;98098.34;104373;1273;72629;-51
2023/11/23 06:15:11;;;;;;;1.40;0.80;;;;;;;18.15;50.64;98095.76;104362;1273;61376;-48
2023/11/23 06:17:38;;;;;;;0.60;0.60;;;;;;;18.15;50.68;98088.64;108119;1272;59388;-54
2023/11/23 06:20:08;;;;;;;1.10;0.80;;;;;;;18.15;50.68;98087.50;104692;1268;74493;-53
2023/11/23 06:22:35;;;;;;;0.70;0.70;;;;;;;18.17;50.75;98094.27;104473;1273;64328;-47
2023/11/23 06:25:03;;;;;;;0.90;0.80;;;;;;;18.17;50.82;98082.69;104450;1271;72557;-47
2023/11/23 06:27:32;;;;;;;1.00;0.80;;;;;;;18.19;50.87;98075.21;104493;1278;61372;-50
2023/11/23 06:29:58;;;;;;;0.70;0.70;;;;;;;18.19;50.90;98064.39;104505;1269;61378;-49
2023/11/23 06:32:26;;;;;;;1.00;0.80;;;;;;;18.20;50.93;98044.73;104422;1273;61356;-51
2023/11/23 06:34:52;;;;;;;0.80;0.80;;;;;;;18.21;50.88;98031.90;104588;1273;66219;-52
2023/11/23 06:37:19;;;;;;;0.90;0.80;;;;;;;18.22;50.95;98013.90;104467;1274;72694;-56
2023/11/23 06:39:45;;;;;;;0.80;0.80;;;;;;;18.23;50.86;97999.30;104338;1272;61288;-46
2023/11/23 06:42:12;;;;;;;1.10;0.90;;;;;;;18.23;51.10;97984.83;104168;1274;61451;-43
2023/11/23 06:44:39;;;;;;;1.00;0.90;;;;;;;18.25;51.28;97971.47;104524;1273;74450;-46
2023/11/23 06:47:06;;;;;;;1.70;1.20;;;;;;;18.29;51.65;97961.15;104426;1273;67475;-43
2023/11/23 06:49:34;;;;;;;1.80;1.30;;;;;;;18.33;52.11;97954.70;104256;1273;72756;-41
2023/11/23 06:52:01;;;;;;;1.00;0.90;;;;;;;18.39;52.18;97954.55;104392;1270;61389;-45
2023/11/23 06:54:28;;;;;;;1.20;1.00;;;;;;;18.44;51.99;97957.20;104196;1270;61367;-47
2023/11/23 06:56:57;;;;;;;2.30;1.00;;;;;;;18.49;52.01;97965.05;104229;1274;74630;-43
2023/11/23 06:59:23;;;;;;;2.00;1.10;;;;;;;18.55;51.96;97965.45;104276;1276;65678;-48
2023/11/23 07:01:50;;;;;;;3.10;1.10;;;;;;;18.59;51.97;97963.87;104197;1273;72593;-45
2023/11/23 07:04:16;;;;;;;1.70;1.40;;;;;;;18.62;51.76;97954.20;104192;1273;61256;-46
2023/11/23 07:06:43;;;;;;;1.50;1.00;;;;;;;18.66;51.73;97942.76;104218;1273;61376;-41
2023/11/23 07:09:13;;;;;;;2.10;1.10;;;;;;;18.68;51.65;97939.42;104536;1271;74657;-45
2023/11/23 07:11:40;;;;;;;1.80;1.10;;;;;;;18.72;51.53;97936.12;104557;1272;65443;-45
2023/11/23 07:14:07;;;;;;;2.80;1.10;;;;;;;18.74;51.24;97936.77;104540;1273;72690;-43
2023/11/23 07:16:36;;;;;;;3.00;1.10;;;;;;;18.75;51.17;97928.13;104267;1273;61309;-44
2023/11/23 07:19:02;;;;;;;3.50;1.30;;;;;;;18.77;51.06;97925.56;104197;1272;61305;-42
2023/11/23 07:21:29;;;;;;;2.40;1.20;;;;;;;18.77;50.97;97911.84;104406;1272;74663;-43
2023/11/23 07:23:56;;;;;;;1.20;1.10;;;;;;;18.78;50.93;97901.18;104831;1274;65174;-42
2023/11/23 07:26:23;;;;;;;1.60;1.20;;;;;;;18.79;51.07;97898.42;104213;1273;72781;-41
2023/11/23 07:28:49;;;;;;;1.20;1.00;;;;;;;18.82;51.06;97893.84;104107;1273;61264;-43
2023/11/23 07:31:16;;;;;;;3.10;1.20;;;;;;;18.82;51.05;97873.52;104219;1269;61281;-43
2023/11/23 07:33:45;;;;;;;2.60;1.20;;;;;;;18.82;50.98;97862.83;104187;1271;74770;-43
2023/11/23 07:36:12;;;;;;;1.20;1.10;;;;;;;18.82;50.96;97857.09;104193;1277;65488;-43
2023/11/23 07:38:39;;;;;;;1.30;1.20;;;;;;;18.83;50.85;97850.60;104234;1270;72671;-43
2023/11/23 07:41:06;;;;;;;1.30;1.00;;;;;;;18.82;50.70;97840.30;104394;1273;61960;-44
2023/11/23 07:43:33;;;;;;;2.50;1.10;;;;;;;18.82;50.64;97833.37;104193;1271;61273;-42
2023/11/23 07:46:00;;;;;;;1.70;1.20;;;;;;;18.82;50.60;97829.50;104180;1273;74736;-44
2023/11/23 07:48:28;;;;;;;4.80;1.20;;;;;;;18.82;50.56;97831.30;104081;1272;65228;-44
2023/11/23 07:50:56;;;;;;;1.80;1.20;;;;;;;18.82;50.73;97831.29;104448;1273;73725;-43
2023/11/23 07:53:26;;;;;;;1.00;0.90;;;;;;;18.83;50.73;97828.44;104402;1275;61302;-43
2023/11/23 07:55:54;;;;;;;1.90;1.30;;;;;;;18.83;50.63;97823.48;104212;1268;61280;-43
2023/11/23 07:58:21;;;;;;;3.20;1.70;;;;;;;18.84;50.56;97820.11;104454;1270;74933;-43
2023/11/23 08:00:48;;;;;;;2.50;1.10;;;;;;;18.85;50.56;97808.10;104363;1273;66242;-43
2023/11/23 08:03:15;;;;;;;2.30;1.30;;;;;;;18.85;50.48;97808.13;104256;1271;72698;-43
2023/11/23 08:05:42;;;;;;;4.00;1.30;;;;;;;18.86;50.44;97800.61;104264;1273;61299;-43
2023/11/23 08:08:10;;;;;;;1.40;1.30;;;;;;;18.86;50.44;97796.52;104353;1270;61432;-43
2023/11/23 08:10:37;;;;;;;2.30;1.40;;;;;;;18.87;50.36;97793.19;104424;1270;75012;-43
2023/11/23 08:13:04;;;;;;;1.30;1.10;;;;;;;18.87;50.33;97782.80;104469;1274;66410;-43
2023/11/23 08:15:31;;;;;;;1.40;1.00;;;;;;;18.87;50.33;97780.55;104157;1268;73696;-48
2023/11/23 08:17:58;;;;;;;2.50;1.30;;;;;;;18.87;50.45;97776.52;104235;1274;61306;-43
2023/11/23 08:20:36;;;;;;;2.60;1.50;;;;;;;18.87;50.49;97782.72;104236;1273;61730;-42
2023/11/23 08:23:03;;;;;;;1.70;1.30;;;;;;;18.87;50.67;97781.95;104351;1270;75564;-41
2023/11/23 08:25:30;;;;;;;1.50;1.20;;;;;;;18.88;50.75;97788.80;104391;1271;66360;-41
2023/11/23 08:27:57;;;;;;;1.90;1.30;;;;;;;18.88;50.82;97786.10;104975;1270;72653;-43
2023/11/23 08:30:24;;;;;;;1.50;1.20;;;;;;;18.89;50.90;97775.72;104398;1274;61195;-45
2023/11/23 08:32:51;;;;;;;1.90;1.20;;;;;;;18.89;51.00;97768.90;107634;1270;59363;-42
2023/11/23 08:35:18;;;;;;;1.60;1.30;;;;;;;18.90;50.97;97767.84;104233;1275;75602;-44
2023/11/23 08:37:46;;;;;;;2.50;1.20;;;;;;;18.91;51.04;97760.11;104497;1270;66276;-44
2023/11/23 08:40:13;;;;;;;1.90;1.20;;;;;;;18.91;50.99;97756.85;104239;1271;72852;-42
2023/11/23 08:42:40;;;;;;;1.20;1.00;;;;;;;18.92;51.04;97753.54;104482;1274;61270;-43
2023/11/23 08:45:08;;;;;;;4.10;1.10;;;;;;;18.93;51.02;97744.36;104251;1273;61380;-44
2023/11/23 08:47:35;;;;;;;1.90;1.20;;;;;;;18.93;51.18;97743.89;104618;1268;73340;-44
2023/11/23 08:50:01;;;;;;;1.80;1.20;;;;;;;18.94;51.16;97733.99;104252;1274;65354;-44
2023/11/23 08:52:28;;;;;;;1.80;1.10;;;;;;;18.94;51.31;97722.45;104263;1271;72742;-41
2023/11/23 08:54:55;;;;;;;1.30;1.20;;;;;;;18.96;51.30;97706.20;104201;1268;61374;-44
2023/11/23 08:57:22;;;;;;;1.70;1.10;;;;;;;18.96;51.19;97700.39;104388;1270;61303;-43
2023/11/23 08:59:49;;;;;;;1.70;1.10;;;;;;;18.97;51.19;97703.66;104377;1270;75506;-43
2023/11/23 09:02:17;;;;;;;2.60;1.30;;;;;;;18.96;51.10;97692.33;104668;1270;66235;-43
2023/11/23 09:04:48;;;;;;;1.80;1.30;;;;;;;18.96;50.99;97677.98;103896;1268;75098;-44
2023/11/23 09:07:16;;;;;;;4.10;1.30;;;;;;;18.96;50.97;97679.30;104321;1268;61809;-43
2023/11/23 09:09:43;;;;;;;3.60;1.40;;;;;;;18.96;50.98;97666.81;106535;1272;61236;-41
2023/11/23 09:12:10;;;;;;;3.20;1.30;;;;;;;18.96;50.90;97661.08;104462;1270;75721;-46
2023/11/23 09:14:37;;;;;;;3.50;1.30;;;;;;;18.96;50.97;97659.21;104411;1274;66370;-48
2023/11/23 09:17:16;;;;;;;1.80;1.30;;;;;;;18.96;51.11;97655.34;104006;1268;74792;-38
2023/11/23 09:19:43;;;;;;;4.60;1.60;;;;;;;18.96;51.27;97655.42;104303;1273;61288;-45
2023/11/23 09:22:10;;;;;;;2.40;1.20;;;;;;;18.97;51.33;97652.58;104249;1270;61272;-42
2023/11/23 09:24:37;;;;;;;1.80;1.20;;;;;;;18.98;51.52;97646.39;104150;1268;74548;-44
2023/11/23 09:27:06;;;;;;;2.70;1.40;;;;;;;18.99;51.80;97633.91;104499;1272;68708;-48
2023/11/23 09:29:33;;;;;;;1.80;1.00;;;;;;;18.99;51.83;97622.38;104585;1268;72478;-44
2023/11/23 09:31:59;;;;;;;1.60;1.20;;;;;;;19.01;51.92;97615.91;104211;1273;187412;-44
2023/11/23 09:34:26;;;;;;;2.90;1.20;;;;;;;19.02;51.91;97605.77;104471;1272;61041;-46
2023/11/23 09:37:03;;;;;;;2.20;1.40;;;;;;;19.03;51.94;97603.39;104310;1271;73746;-36
2023/11/23 09:39:46;;;;;;;4.20;1.90;;;;;;;19.04;52.00;97588.30;104573;1274;67118;-42
2023/11/23 09:42:18;;;;;;;1.70;1.40;;;;;;;19.06;51.94;97572.58;104624;1270;74579;-41
2023/11/23 09:44:56;;;;;;;2.00;1.40;;;;;;;19.08;52.01;97557.14;104131;1270;61476;-45
2023/11/23 09:47:31;;;;;;;4.50;1.60;;;;;;;19.13;52.42;97552.42;104101;1276;61345;-43
2023/11/23 09:50:01;;;;;;;3.00;2.40;;;;;;;19.19;52.59;97541.05;104026;1269;74564;-51
2023/11/23 09:52:30;;;;;;;3.60;2.10;;;;;;;19.19;51.63;97530.67;104188;1268;67752;-46
2023/11/23 09:54:57;;;;;;;4.20;1.80;;;;;;;19.20;52.04;97518.73;104737;1269;72624;-46
2023/11/23 09:57:25;;;;;;;4.40;1.70;;;;;;;19.24;52.18;97504.86;104500;1273;61321;-48
2023/11/23 09:59:55;;;;;;;4.30;1.80;;;;;;;19.28;52.02;97496.02;104279;1269;61351;-45
2023/11/23 10:02:30;;;;;;;3.50;2.00;;;;;;;19.32;51.99;97493.23;104463;1275;74962;-43
2023/11/23 10:04:58;;;;;;;2.60;1.70;;;;;;;19.35;52.08;97494.62;104455;1276;67614;-53
2023/11/23 10:07:26;;;;;;;5.40;1.70;;;;;;;19.37;52.08;97487.77;104487;1268;72739;-58
2023/11/23 10:09:55;;;;;;;2.50;1.60;;;;;;;19.40;52.11;97484.49;104135;1276;61335;-49
2023/11/23 10:12:23;;;;;;;2.90;1.70;;;;;;;19.42;52.23;97474.59;104366;1268;61455;-45
2023/11/23 10:14:54;;;;;;;2.10;1.60;;;;;;;19.44;52.18;97468.42;104653;1272;75477;-51
2023/11/23 10:17:20;;;;;;;4.10;1.70;;;;;;;19.45;52.22;97468.92;104237;1268;66851;-45
2023/11/23 10:19:49;;;;;;;2.40;1.60;;;;;;;19.46;52.27;97468.40;104164;1268;74127;-47
2023/11/23 10:22:16;;;;;;;6.70;1.80;;;;;;;19.48;52.31;97458.80;104305;1277;61287;-49
2023/11/23 10:24:49;;;;;;;5.80;1.60;;;;;;;19.49;52.44;97455.73;104484;1268;61281;-46
2023/11/23 10:27:16;;;;;;;3.40;1.80;;;;;;;19.50;52.40;97435.33;104261;1270;74717;-46
2023/11/23 10:29:43;;;;;;;2.00;1.70;;;;;;;19.52;52.46;97429.71;104334;1268;66071;-46
2023/11/23 10:32:10;;;;;;;3.00;1.50;;;;;;;19.55;52.45;97425.18;104162;1273;71836;-44
2023/11/23 10:34:37;;;;;;;5.40;1.90;;;;;;;19.58;52.68;97416.08;104011;1284;61752;-52
2023/11/23 10:37:05;;;;;;;4.00;1.90;;;;;;;19.62;52.81;97414.35;104506;1270;61260;-48
2023/11/23 10:39:32;;;;;;;3.20;1.50;;;;;;;19.64;52.81;97411.91;104404;1273;75690;-58
2023/11/23 10:41:59;;;;;;;4.30;2.00;;;;;;;19.66;52.69;97399.52;104090;1274;65504;-62
2023/11/23 10:44:28;;;;;;;4.10;1.70;;;;;;;19.68;52.26;97396.84;104188;1270;72919;-56
2023/11/23 10:47:02;;;;;;;6.60;2.00;;;;;;;19.69;52.07;97391.72;104449;1273;61371;-58
2023/11/23 10:49:36;;;;;;;3.00;1.90;;;;;;;19.70;51.96;97386.70;106475;1273;61160;-59
2023/11/23 10:52:10;;;;;;;3.50;1.90;;;;;;;19.70;52.07;97381.89;104266;1268;74320;-58
2023/11/23 10:54:36;;;;;;;2.50;1.70;;;;;;;19.71;52.09;97367.79;104443;1273;65746;-48
2023/11/23 10:57:05;;;;;;;5.30;1.60;;;;;;;19.72;52.25;97356.00;105787;1273;73654;-52
2023/11/23 10:59:35;;;;;;;3.70;1.80;;;;;;;19.73;52.43;97346.15;105077;1270;61393;-57
2023/11/23 11:02:10;;;;;;;6.00;1.80;;;;;;;19.74;52.54;97339.95;105213;1269;61537;-45
2023/11/23 11:04:37;;;;;;;4.40;1.70;;;;;;;19.75;52.69;97327.09;105052;1268;75516;-57
2023/11/23 11:07:04;;;;;;;4.90;1.80;;;;;;;19.76;52.58;97317.15;104676;1269;66308;-57
2023/11/23 11:09:33;;;;;;;3.50;1.70;;;;;;;19.77;52.61;97310.60;104231;1268;73751;-49
2023/11/23 11:12:02;;;;;;;1.90;1.40;;;;;;;19.78;52.65;97299.89;108315;1267;60234;-50
2023/11/23 11:14:35;;;;;;;3.50;1.70;;;;;;;19.78;52.56;97290.96;104253;1269;61298;-51
2023/11/23 11:17:02;;;;;;;3.10;1.70;;;;;;;19.79;52.49;97273.27;104298;1273;76182;-53
2023/11/23 11:19:29;;;;;;;2.80;1.80;;;;;;;19.79;52.42;97263.95;104432;1270;65704;-49
2023/11/23 11:22:02;;;;;;;2.60;1.40;;;;;;;19.79;52.53;97256.12;103996;1271;74040;-50
2023/11/23 11:24:29;;;;;;;6.70;1.70;;;;;;;19.79;52.66;97243.63;104190;1272;61396;-47